Time;durP1;ratioP1;P1;durP2;ratioP2;P2;SDS_P1;SDS_P2;PMS_P1;PMS_P2;Temp;Humidity;BMP_temperature;BMP_pressure;BME280_temperature;BME280_humidity;BME280_pressure;Samples;Min_cycle;Max_cycle;Signal;HPM_P1;HPM_P2
2023/07/12 00:00:20;;;;;;;;;1.50;1.00;;;;;23.43;52.25;100860.44;5080022;28;45288;-69
2023/07/12 00:02:46;;;;;;;;;2.75;2.50;;;;;23.39;54.07;100857.88;5076073;28;45477;-70
2023/07/12 00:05:11;;;;;;;;;5.00;3.25;;;;;23.40;54.47;100865.03;5060961;28;45968;-69
2023/07/12 00:07:36;;;;;;;;;2.50;1.75;;;;;23.37;55.00;100867.81;5074553;28;45315;-69
2023/07/12 00:10:02;;;;;;;;;2.00;2.00;;;;;23.25;55.32;100852.88;5068615;28;45292;-69
2023/07/12 00:12:27;;;;;;;;;2.00;2.00;;;;;23.21;55.16;100854.75;5075662;28;45576;-69
2023/07/12 00:14:53;;;;;;;;;4.00;3.00;;;;;23.30;54.92;100866.22;5078320;28;50683;-69
2023/07/12 00:17:21;;;;;;;;;2.50;2.00;;;;;23.36;52.95;100871.47;5078462;28;55008;-69
2023/07/12 00:19:47;;;;;;;;;3.50;3.00;;;;;23.24;56.17;100865.44;5079006;28;45248;-69
2023/07/12 00:22:12;;;;;;;;;3.00;1.00;;;;;23.34;55.32;100884.09;5078222;28;45510;-69
2023/07/12 00:24:37;;;;;;;;;3.50;3.00;;;;;23.32;54.16;100884.13;5079605;28;46287;-69
2023/07/12 00:27:03;;;;;;;;;4.00;2.50;;;;;23.18;56.17;100852.13;5078318;28;45448;-71
2023/07/12 00:29:28;;;;;;;;;2.00;2.00;;;;;23.29;55.15;100870.72;5061155;28;45302;-69
2023/07/12 00:31:53;;;;;;;;;1.75;1.75;;;;;23.26;54.84;100864.53;5078632;28;48174;-69
2023/07/12 00:34:19;;;;;;;;;2.00;2.00;;;;;23.31;54.63;100862.59;5076749;28;51070;-69
2023/07/12 00:36:44;;;;;;;;;1.50;1.50;;;;;23.22;54.83;100859.22;5078701;28;46420;-69
2023/07/12 00:39:12;;;;;;;;;0.75;0.25;;;;;23.27;55.32;100877.97;5078245;28;49060;-69
2023/07/12 00:42:11;;;;;;;;;2.00;2.00;;;;;23.13;54.40;100863.97;5078683;28;45292;-68
2023/07/12 00:44:47;;;;;;;;;4.75;3.00;;;;;23.12;54.46;100865.78;5067608;28;45542;-68
2023/07/12 00:47:14;;;;;;;;;3.00;3.00;;;;;23.12;56.05;100878.38;5078117;28;47059;-69
2023/07/12 00:49:40;;;;;;;;;3.00;3.00;;;;;23.04;55.34;100867.78;5057333;28;45667;-69
2023/07/12 00:52:17;;;;;;;;;2.00;2.00;;;;;23.09;55.47;100891.94;5074770;28;45333;-68
2023/07/12 00:54:58;;;;;;;;;4.00;2.25;;;;;23.07;54.95;100901.88;5072311;28;45489;-69
2023/07/12 00:57:26;;;;;;;;;4.25;2.50;;;;;22.97;56.38;100885.94;5077846;28;46349;-69
2023/07/12 00:59:54;;;;;;;;;3.00;3.00;;;;;23.04;54.37;100912.75;5060752;28;45427;-69
2023/07/12 01:02:23;;;;;;;;;3.00;2.00;;;;;22.99;54.99;100902.97;5073322;28;45332;-69
2023/07/12 01:04:51;;;;;;;;;3.25;3.25;;;;;22.90;55.71;100892.38;5074623;28;45449;-69
2023/07/12 01:07:19;;;;;;;;;4.00;2.00;;;;;22.87;56.05;100899.66;5076529;28;45405;-69
2023/07/12 01:09:44;;;;;;;;;3.00;2.00;;;;;22.81;54.31;100886.34;5073365;28;45291;-69
2023/07/12 01:12:09;;;;;;;;;0.50;0.00;;;;;22.87;56.41;100910.44;5078034;28;45319;-69
2023/07/12 01:14:37;;;;;;;;;2.00;1.00;;;;;22.87;54.23;100913.13;5079140;28;45476;-69
2023/07/12 01:17:05;;;;;;;;;2.00;2.00;;;;;22.78;55.16;100917.81;5076040;28;45465;-69
2023/07/12 01:19:33;;;;;;;;;1.50;1.50;;;;;22.72;55.46;100917.97;5049285;28;46235;-69
2023/07/12 01:21:58;;;;;;;;;1.00;1.00;;;;;22.64;55.00;100913.69;5056237;28;45278;-69
2023/07/12 01:24:26;;;;;;;;;5.25;1.00;;;;;22.53;56.33;100913.94;5072710;28;45359;-69
2023/07/12 01:26:56;;;;;;;;;2.00;2.00;;;;;22.52;54.86;100929.22;5074275;28;45733;-69
2023/07/12 01:29:22;;;;;;;;;1.75;1.75;;;;;22.31;54.98;100903.66;5078467;28;45387;-69
2023/07/12 01:31:47;;;;;;;;;1.67;1.67;;;;;22.32;55.76;100913.53;5080188;28;45315;-69
2023/07/12 01:34:14;;;;;;;;;1.00;1.00;;;;;22.24;54.93;100901.16;5082163;28;45318;-69
2023/07/12 01:36:40;;;;;;;;;4.33;2.00;;;;;22.27;55.90;100920.81;5081453;28;45548;-69
2023/07/12 01:39:05;;;;;;;;;0.00;0.00;;;;;22.19;54.94;100913.84;5082049;28;45249;-68
2023/07/12 01:41:32;;;;;;;;;1.00;1.00;;;;;22.15;55.38;100921.03;5082030;28;45226;-69
2023/07/12 01:43:57;;;;;;;;;0.67;0.67;;;;;22.10;55.79;100933.72;5081260;28;45512;-69
2023/07/12 01:46:24;;;;;;;;;3.00;1.00;;;;;21.97;55.62;100911.56;5081978;28;45236;-69
2023/07/12 01:48:49;;;;;;;;;0.00;0.00;;;;;22.03;56.79;100930.25;5074205;28;45451;-69
2023/07/12 01:51:16;;;;;;;;;1.00;0.00;;;;;21.86;57.07;100906.38;5063758;28;45257;-69
2023/07/12 01:53:42;;;;;;;;;1.00;0.00;;;;;21.94;56.41;100911.63;5075345;28;45441;-69
2023/07/12 01:56:09;;;;;;;;;1.00;1.00;;;;;21.94;56.41;100930.47;5081506;28;45426;-68
2023/07/12 01:58:34;;;;;;;;;0.00;0.00;;;;;21.83;57.48;100916.34;5081316;28;45436;-69
2023/07/12 02:01:00;;;;;;;;;1.00;1.00;;;;;21.84;56.81;100929.75;5081762;28;45249;-69
2023/07/12 02:03:26;;;;;;;;;0.00;0.00;;;;;21.84;56.51;100927.06;5077858;28;45457;-69
2023/07/12 02:05:52;;;;;;;;;0.00;0.00;;;;;21.86;55.81;100941.38;5081349;28;45417;-69
2023/07/12 02:08:17;;;;;;;;;0.33;0.33;;;;;21.75;56.44;100920.97;5075414;28;45212;-69
2023/07/12 02:10:49;;;;;;;;;0.00;0.00;;;;;21.82;55.31;100939.69;5080166;28;45442;-69
2023/07/12 02:13:16;;;;;;;;;0.00;0.00;;;;;21.84;55.59;100948.59;5071820;28;45465;-68
2023/07/12 02:19:03;;;;;;;;;0.00;0.00;;;;;21.71;55.97;100947.06;5077514;28;45722;-69
2023/07/12 02:21:29;;;;;;;;;1.00;0.00;;;;;21.73;55.60;100958.66;5077645;28;45392;-69
2023/07/12 02:23:54;;;;;;;;;0.00;0.00;;;;;21.65;56.04;100955.28;5079576;28;46741;-69
2023/07/12 02:26:20;;;;;;;;;0.00;0.00;;;;;21.53;55.69;100952.78;5081404;28;45776;-70
2023/07/12 02:28:45;;;;;;;;;0.33;0.00;;;;;21.19;58.27;100911.22;5080502;28;45421;-69
2023/07/12 02:31:22;;;;;;;;;0.00;0.00;;;;;21.45;56.77;100963.69;5081631;28;45288;-69
2023/07/12 02:33:48;;;;;;;;;0.00;0.00;;;;;21.45;57.58;100961.91;5062448;28;46165;-69
2023/07/12 02:36:14;;;;;;;;;0.00;0.00;;;;;21.44;56.59;100969.97;5074610;28;46628;-69
2023/07/12 02:38:40;;;;;;;;;0.00;0.00;;;;;21.36;58.09;100950.38;5080576;28;45339;-69
2023/07/12 02:41:07;;;;;;;;;0.00;0.00;;;;;21.34;56.41;100949.50;5081034;28;45441;-69
2023/07/12 02:43:32;;;;;;;;;1.33;0.00;;;;;21.26;57.74;100952.34;5079888;28;45387;-69
2023/07/12 02:45:57;;;;;;;;;0.00;0.00;;;;;21.17;57.66;100944.41;5081109;28;46205;-69
2023/07/12 02:48:23;;;;;;;;;0.67;0.00;;;;;21.17;58.10;100952.47;5080236;28;45452;-69
2023/07/12 02:50:48;;;;;;;;;0.00;0.00;;;;;21.19;57.37;100966.78;5081295;28;45640;-69
2023/07/12 02:53:19;;;;;;;;;0.00;0.00;;;;;21.19;56.79;100966.78;5075252;28;48503;-69
2023/07/12 02:55:48;;;;;;;;;0.00;0.00;;;;;20.97;57.48;100944.75;5077434;28;46088;-69
2023/07/12 02:58:13;;;;;;;;;1.67;1.67;;;;;21.04;56.93;100964.38;5079264;28;45362;-69
2023/07/12 03:00:39;;;;;;;;;0.00;0.00;;;;;20.83;58.76;100934.22;5080811;28;45530;-69
2023/07/12 03:03:05;;;;;;;;;0.00;0.00;;;;;21.00;57.14;100964.44;5080090;28;45369;-69
2023/07/12 03:05:33;;;;;;;;;0.33;0.33;;;;;21.07;57.13;100980.44;5080337;28;45339;-69
2023/07/12 03:07:59;;;;;;;;;1.33;1.00;;;;;20.94;56.76;100963.63;5075652;28;45306;-69
2023/07/12 03:10:24;;;;;;;;;2.67;1.00;;;;;20.90;57.46;100981.59;5070334;28;45266;-69
2023/07/12 03:12:49;;;;;;;;;1.00;1.00;;;;;20.94;56.63;100987.81;5074961;28;54726;-69
2023/07/12 03:15:15;;;;;;;;;1.00;1.00;;;;;20.82;56.49;100983.50;5080467;28;45228;-69
2023/07/12 03:17:40;;;;;;;;;2.00;1.00;;;;;20.71;56.86;100978.28;5061678;28;45428;-68
2023/07/12 03:20:06;;;;;;;;;2.33;2.00;;;;;20.60;56.93;100980.25;5080514;28;45330;-69
2023/07/12 03:22:31;;;;;;;;;1.33;1.33;;;;;20.66;56.41;100985.53;5079925;28;45322;-69
2023/07/12 03:24:56;;;;;;;;;4.33;3.00;;;;;20.45;56.57;100964.31;5080104;28;46891;-69
2023/07/12 03:27:22;;;;;;;;;1.67;1.67;;;;;20.44;56.31;100984.88;5079551;28;45314;-69
2023/07/12 03:29:47;;;;;;;;;2.33;1.00;;;;;20.39;56.35;100993.91;5080426;28;45564;-69
2023/07/12 03:32:13;;;;;;;;;3.33;1.67;;;;;20.35;56.13;100993.06;5072457;28;45417;-69
2023/07/12 03:34:38;;;;;;;;;1.67;1.67;;;;;20.32;56.50;101003.84;5078179;28;46204;-69
2023/07/12 03:37:03;;;;;;;;;1.67;1.67;;;;;20.24;56.58;100998.56;5079928;28;45478;-69
2023/07/12 03:39:29;;;;;;;;;2.00;2.00;;;;;20.06;56.45;100962.13;5079217;28;45391;-69
2023/07/12 03:41:54;;;;;;;;;3.00;1.00;;;;;20.25;56.24;101000.38;5079595;28;45236;-69
2023/07/12 03:44:19;;;;;;;;;2.00;2.00;;;;;20.15;56.93;100997.81;5079788;28;46195;-69
2023/07/12 03:46:45;;;;;;;;;3.00;2.33;;;;;20.09;56.56;100991.59;5079649;28;45256;-69
2023/07/12 03:49:10;;;;;;;;;2.00;2.00;;;;;20.07;56.84;101009.50;5072255;28;45452;-69
2023/07/12 03:51:35;;;;;;;;;2.33;1.67;;;;;19.97;57.48;100990.84;5079819;28;45495;-69
2023/07/12 03:54:01;;;;;;;;;2.67;1.67;;;;;19.90;57.03;101003.44;5072241;28;48008;-69
2023/07/12 03:56:26;;;;;;;;;3.00;1.67;;;;;19.82;57.26;100991.91;5080027;28;45295;-69
2023/07/12 03:58:51;;;;;;;;;2.00;2.00;;;;;19.87;57.11;101011.53;5079055;28;45675;-69
2023/07/12 04:01:18;;;;;;;;;2.33;2.33;;;;;19.83;57.21;101007.13;5080124;28;45469;-69
2023/07/12 04:03:43;;;;;;;;;1.67;1.67;;;;;19.83;57.46;101017.84;5074986;28;45972;-68
2023/07/12 04:06:09;;;;;;;;;2.33;1.00;;;;;19.76;57.05;101011.66;5061197;28;45281;-68
2023/07/12 04:08:36;;;;;;;;;1.00;1.00;;;;;19.78;57.41;101025.94;5053107;28;45333;-68
2023/07/12 04:11:03;;;;;;;;;1.67;1.67;;;;;19.64;57.78;101004.59;5071469;28;45489;-69
2023/07/12 04:13:29;;;;;;;;;3.00;1.67;;;;;19.73;58.02;101021.53;5076501;28;46120;-69
2023/07/12 04:15:56;;;;;;;;;3.00;1.67;;;;;19.64;56.73;101015.31;5072835;28;45482;-69
2023/07/12 04:18:23;;;;;;;;;2.67;1.67;;;;;19.61;57.44;101017.13;5077997;28;45302;-69
2023/07/12 04:20:48;;;;;;;;;6.00;3.00;;;;;19.57;57.90;101013.56;5056068;28;45761;-68
2023/07/12 04:23:14;;;;;;;;;3.00;1.33;;;;;19.71;57.88;101032.25;5078750;28;45287;-68
2023/07/12 04:25:39;;;;;;;;;1.67;1.67;;;;;19.66;57.95;101028.72;5074884;28;45228;-68
2023/07/12 04:28:04;;;;;;;;;1.33;1.33;;;;;19.66;57.39;101037.69;5078854;28;45481;-68
2023/07/12 04:30:30;;;;;;;;;3.67;2.00;;;;;19.58;57.74;101034.16;5057914;28;45995;-69
2023/07/12 04:32:55;;;;;;;;;2.00;2.00;;;;;19.54;56.94;101032.38;5078587;28;49644;-69
2023/07/12 04:35:21;;;;;;;;;2.00;2.00;;;;;19.57;58.18;101047.56;5076955;28;52182;-67
2023/07/12 04:37:47;;;;;;;;;1.67;1.67;;;;;19.25;57.64;100988.88;5078594;28;45273;-68
2023/07/12 04:40:13;;;;;;;;;1.33;1.33;;;;;19.57;57.89;101060.97;5078601;28;45420;-68
2023/07/12 04:42:39;;;;;;;;;2.67;1.33;;;;;19.52;57.71;101052.06;5078068;28;45315;-69
2023/07/12 04:45:04;;;;;;;;;2.00;2.00;;;;;19.47;57.84;101053.91;5070825;28;45365;-68
2023/07/12 04:47:30;;;;;;;;;2.00;1.67;;;;;19.41;57.46;101060.22;5078531;28;45446;-68
2023/07/12 04:49:55;;;;;;;;;2.00;2.00;;;;;19.29;57.76;101041.53;5071926;28;45314;-68
2023/07/12 04:52:21;;;;;;;;;3.67;2.33;;;;;19.29;58.77;101047.78;5078143;28;45595;-68
2023/07/12 04:54:46;;;;;;;;;6.00;1.67;;;;;19.40;58.82;101070.03;5073243;28;45267;-68
2023/07/12 04:57:12;;;;;;;;;2.00;1.67;;;;;19.39;56.93;101068.25;5077771;28;45380;-68
2023/07/12 04:59:37;;;;;;;;;4.00;2.67;;;;;19.38;58.07;101063.81;5084253;27;45799;-67
2023/07/12 05:02:03;;;;;;;;;1.00;0.67;;;;;19.40;58.37;101069.13;5077656;28;45476;-68
2023/07/12 05:04:28;;;;;;;;;1.67;1.33;;;;;19.47;58.12;101089.66;5074742;28;45198;-67
2023/07/12 05:06:54;;;;;;;;;2.00;2.00;;;;;19.50;56.92;101091.44;5082124;28;45536;-67
2023/07/12 05:09:20;;;;;;;;;1.33;1.33;;;;;19.43;57.51;101087.88;5073113;28;45635;-68
2023/07/12 05:11:50;;;;;;;;;3.67;2.00;;;;;19.45;57.27;101105.75;5079816;28;45535;-68
2023/07/12 05:14:15;;;;;;;;;1.33;1.33;;;;;19.43;56.99;101087.88;5073620;28;45313;-68
2023/07/12 05:16:41;;;;;;;;;2.67;1.67;;;;;19.28;56.72;101067.44;5079996;28;45514;-69
2023/07/12 05:19:06;;;;;;;;;3.67;3.00;;;;;19.39;56.60;101096.88;5076746;28;45174;-69
2023/07/12 05:21:32;;;;;;;;;1.33;1.33;;;;;19.22;56.83;101079.09;5076468;28;45537;-69
2023/07/12 05:23:57;;;;;;;;;1.67;1.67;;;;;19.32;56.70;101101.34;5080019;28;45172;-69
2023/07/12 05:26:22;;;;;;;;;2.33;1.00;;;;;19.22;56.39;101095.19;5076267;28;45287;-69
2023/07/12 05:28:48;;;;;;;;;3.00;3.00;;;;;19.14;57.47;101083.63;5080986;28;45565;-70
2023/07/12 05:31:14;;;;;;;;;3.00;2.00;;;;;19.30;57.15;101113.91;5079174;27;47526;-70
2023/07/12 05:33:43;;;;;;;;;3.67;2.33;;;;;19.31;56.51;101110.31;5081225;28;45247;-70
2023/07/12 05:36:10;;;;;;;;;3.67;1.67;;;;;19.23;57.04;101096.06;5082079;28;45414;-68
2023/07/12 05:38:35;;;;;;;;;2.00;2.00;;;;;19.20;57.05;101085.38;5081363;28;45367;-69
2023/07/12 05:41:01;;;;;;;;;3.67;3.00;;;;;19.19;57.12;101084.50;5063304;28;46140;-69
2023/07/12 05:43:28;;;;;;;;;1.67;1.00;;;;;19.35;57.79;101119.22;5062781;28;45247;-69
2023/07/12 05:45:53;;;;;;;;;3.33;2.33;;;;;19.40;56.38;101120.97;5081528;28;45379;-74
2023/07/12 05:48:19;;;;;;;;;2.33;2.33;;;;;19.35;56.16;101119.22;5063439;28;45962;-71
2023/07/12 05:50:49;;;;;;;;;3.33;2.33;;;;;19.43;56.41;101128.97;5081655;28;46405;-71
2023/07/12 05:53:14;;;;;;;;;4.67;3.33;;;;;19.38;57.17;101122.78;5062883;28;45467;-73
2023/07/12 05:55:39;;;;;;;;;2.00;1.67;;;;;19.48;56.33;101123.59;5081640;28;45219;-73
2023/07/12 05:58:05;;;;;;;;;3.67;2.67;;;;;19.51;56.26;101110.16;5080487;28;56663;-72
2023/07/12 06:00:30;;;;;;;;;2.33;2.00;;;;;19.57;56.34;101120.84;5081666;28;46170;-74
2023/07/12 06:02:56;;;;;;;;;2.33;2.00;;;;;19.68;55.50;101132.41;5080799;28;45376;-77
2023/07/12 06:05:22;;;;;;;;;3.33;1.00;;;;;19.61;55.58;101111.88;5081690;28;45194;-72
2023/07/12 06:07:47;;;;;;;;;1.33;1.33;;;;;19.78;56.03;101135.03;5060380;28;46049;-71
2023/07/12 06:10:15;;;;;;;;;3.00;2.00;;;;;19.86;55.53;101135.88;5063171;28;45402;-71
2023/07/12 06:12:41;;;;;;;;;2.00;2.00;;;;;19.99;55.49;101133.94;5077112;28;45211;-71
2023/07/12 06:15:07;;;;;;;;;2.67;2.67;;;;;19.94;55.09;101111.63;5078030;28;45359;-69
2023/07/12 06:17:32;;;;;;;;;2.00;2.00;;;;;20.03;55.25;101130.34;5061905;28;45885;-70
2023/07/12 06:19:58;;;;;;;;;1.67;1.67;;;;;20.11;55.08;101141.91;5078863;28;45350;-71
2023/07/12 06:22:23;;;;;;;;;3.67;2.00;;;;;20.18;55.07;101140.03;5080491;28;45323;-69
2023/07/12 06:24:48;;;;;;;;;2.33;2.33;;;;;20.24;54.72;101150.72;5081441;28;45281;-71
2023/07/12 06:27:14;;;;;;;;;3.33;2.00;;;;;20.13;54.65;101130.22;5061438;28;45429;-74
2023/07/12 06:29:42;;;;;;;;;2.33;2.33;;;;;20.20;54.02;101132.88;5081150;28;46626;-77
2023/07/12 06:32:11;;;;;;;;;2.33;2.33;;;;;20.40;53.94;101151.44;5079700;28;45283;-75
2023/07/12 06:34:37;;;;;;;;;2.33;1.67;;;;;20.51;53.72;101150.41;5079272;28;45205;-72
2023/07/12 06:37:03;;;;;;;;;2.67;1.67;;;;;20.69;53.48;101151.16;5075246;28;45320;-73
2023/07/12 06:39:28;;;;;;;;;3.00;1.33;;;;;20.82;53.17;101142.03;5084173;27;47438;-72
2023/07/12 06:41:53;;;;;;;;;3.00;1.67;;;;;20.98;52.66;101146.31;5081693;28;46547;-72
2023/07/12 06:44:19;;;;;;;;;3.67;1.33;;;;;21.04;52.51;101147.16;5059187;28;45407;-72
2023/07/12 06:46:45;;;;;;;;;1.67;1.67;;;;;21.13;52.23;101155.06;5064077;28;46509;-73
2023/07/12 06:49:13;;;;;;;;;1.67;1.67;;;;;21.13;52.01;101142.53;5082768;27;45300;-75
2023/07/12 06:51:38;;;;;;;;;2.33;2.33;;;;;21.30;52.01;101166.47;5080728;28;45224;-73
2023/07/12 06:54:03;;;;;;;;;2.00;1.00;;;;;21.26;52.05;101150.41;5080061;28;45410;-73
2023/07/12 06:56:29;;;;;;;;;0.33;0.33;;;;;21.41;51.38;101167.25;5080505;28;45265;-77
2023/07/12 06:58:54;;;;;;;;;2.00;0.67;;;;;21.63;51.22;101153.50;5076291;28;45362;-77
2023/07/12 07:01:19;;;;;;;;;2.00;2.00;;;;;21.94;50.89;101167.34;5071387;28;45268;-77
2023/07/12 07:03:45;;;;;;;;;2.67;2.00;;;;;22.19;50.37;101148.97;5074941;27;45246;-71
2023/07/12 07:06:10;;;;;;;;;0.00;0.00;;;;;22.54;48.89;101159.06;5071445;28;45277;-72
2023/07/12 07:08:35;;;;;;;;;2.33;1.67;;;;;22.87;49.48;101164.72;5079022;28;46590;-71
2023/07/12 07:11:01;;;;;;;;;1.33;1.33;;;;;23.18;47.80;101185.66;5073963;28;45281;-71
2023/07/12 07:13:26;;;;;;;;;1.75;1.00;;;;;23.03;46.76;101127.56;5079675;28;45496;-72
2023/07/12 07:15:52;;;;;;;;;3.00;1.67;;;;;23.59;47.73;101179.34;5075470;28;45448;-70
2023/07/12 07:18:17;;;;;;;;;0.00;0.00;;;;;23.76;45.21;101172.69;5079363;28;45594;-72
2023/07/12 07:20:43;;;;;;;;;1.00;1.00;;;;;24.05;45.42;101180.06;5070646;28;45308;-71
2023/07/12 07:23:10;;;;;;;;;2.00;2.00;;;;;24.27;45.76;101167.75;5074786;28;45366;-70
2023/07/12 07:25:36;;;;;;;;;1.00;1.00;;;;;24.28;45.51;101169.56;5068639;28;45450;-71
2023/07/12 07:28:01;;;;;;;;;0.25;0.25;;;;;24.47;44.00;101188.00;5073137;28;45816;-71
2023/07/12 07:30:27;;;;;;;;;1.00;1.00;;;;;24.49;43.55;101181.63;5077883;28;45300;-71
2023/07/12 07:32:54;;;;;;;;;3.25;1.75;;;;;24.54;44.39;101190.50;5075371;28;45904;-70
2023/07/12 07:35:20;;;;;;;;;1.25;0.75;;;;;24.52;44.62;101184.25;5076228;28;46037;-70
2023/07/12 07:37:48;;;;;;;;;4.00;1.00;;;;;24.62;44.91;101183.97;5078313;28;46521;-70
2023/07/12 07:40:13;;;;;;;;;3.50;1.50;;;;;24.68;44.07;101168.50;5075598;28;45621;-71
2023/07/12 07:42:39;;;;;;;;;3.00;1.25;;;;;24.99;43.60;101184.72;5074790;28;45536;-69
2023/07/12 07:45:05;;;;;;;;;2.00;1.00;;;;;25.21;41.73;101176.00;5073414;28;45348;-69
2023/07/12 07:47:30;;;;;;;;;4.50;1.25;;;;;25.38;42.24;101180.91;5072344;28;46968;-72
2023/07/12 07:49:55;;;;;;;;;3.25;2.00;;;;;25.59;41.44;101176.59;5072473;28;45355;-73
2023/07/12 07:52:21;;;;;;;;;1.00;1.00;;;;;25.70;41.65;101155.47;5063273;28;45407;-73
2023/07/12 07:54:46;;;;;;;;;1.00;1.00;;;;;26.03;40.05;101179.72;5073651;28;51644;-74
2023/07/12 07:57:11;;;;;;;;;2.00;1.00;;;;;26.27;40.86;101170.75;5071293;28;45710;-75
2023/07/12 07:59:37;;;;;;;;;1.00;0.25;;;;;26.42;42.20;101172.03;5069433;28;45318;-71
2023/07/12 08:02:02;;;;;;;;;1.00;1.00;;;;;26.58;40.62;101195.91;5066033;28;45177;-75
2023/07/12 08:04:30;;;;;;;;;2.00;2.00;;;;;26.69;38.82;101182.84;5079520;28;45525;-73
2023/07/12 08:06:56;;;;;;;;;0.25;0.25;;;;;26.85;39.63;101186.75;5067894;28;46347;-74
2023/07/12 08:09:21;;;;;;;;;1.80;0.80;;;;;26.91;38.62;101180.22;5074566;28;45713;-73
2023/07/12 08:11:47;;;;;;;;;1.00;1.00;;;;;27.09;40.25;101192.22;5069158;28;45448;-75
2023/07/12 08:14:12;;;;;;;;;2.25;0.75;;;;;27.02;39.52;101199.69;5076294;28;51645;-73
2023/07/12 08:16:37;;;;;;;;;3.00;3.00;;;;;26.93;38.73;101181.94;5076540;28;46610;-75
2023/07/12 08:19:03;;;;;;;;;1.00;1.00;;;;;27.05;37.57;101194.13;5077082;27;45726;-72
2023/07/12 08:21:29;;;;;;;;;2.00;1.00;;;;;27.18;38.63;101186.47;5076229;28;45321;-73
2023/07/12 08:23:55;;;;;;;;;1.75;1.75;;;;;27.41;37.28;101208.16;5078352;28;45444;-73
2023/07/12 08:26:21;;;;;;;;;1.25;0.00;;;;;27.45;37.73;101198.97;5074363;28;47066;-73
2023/07/12 08:28:47;;;;;;;;;1.75;1.25;;;;;27.47;37.86;101203.44;5072181;27;45313;-73
2023/07/12 08:31:12;;;;;;;;;3.00;1.00;;;;;27.35;38.82;101194.81;5075903;28;45262;-71
2023/07/12 08:33:38;;;;;;;;;0.00;0.00;;;;;27.20;35.49;101190.00;5073129;28;46882;-75
2023/07/12 08:36:03;;;;;;;;;1.25;1.00;;;;;27.15;36.06;101165.72;5075850;28;45359;-74
2023/07/12 08:38:31;;;;;;;;;1.00;1.00;;;;;27.35;35.45;101191.22;5070485;28;45185;-72
2023/07/12 08:40:58;;;;;;;;;1.00;1.00;;;;;27.48;36.15;101195.25;5073684;27;45260;-73
2023/07/12 08:43:33;;;;;;;;;1.00;1.00;;;;;27.67;36.02;101184.50;5071806;28;46163;-73
2023/07/12 08:46:13;;;;;;;;;0.80;0.80;;;;;27.95;36.22;101194.25;5065052;28;45402;-73
2023/07/12 08:48:39;;;;;;;;;1.00;0.80;;;;;27.86;35.28;101193.69;5073942;28;45443;-73
2023/07/12 08:51:15;;;;;;;;;0.80;0.80;;;;;27.92;35.60;101207.97;5074200;28;45473;-72
2023/07/12 08:53:41;;;;;;;;;1.80;0.80;;;;;27.44;36.37;101153.72;5078282;27;45451;-72
2023/07/12 08:56:13;;;;;;;;;0.80;0.80;;;;;27.43;36.49;101195.41;5073259;28;46275;-72
2023/07/12 08:58:44;;;;;;;;;0.20;0.20;;;;;27.33;35.69;101213.00;5067445;28;45587;-72
2023/07/12 09:01:15;;;;;;;;;0.20;0.20;;;;;27.39;36.64;101207.34;5072558;28;45778;-73
2023/07/12 09:03:40;;;;;;;;;1.00;1.00;;;;;27.61;36.38;101220.06;5074827;28;45417;-72
2023/07/12 09:06:14;;;;;;;;;2.25;1.00;;;;;27.76;35.68;101197.72;5078082;28;46649;-72
2023/07/12 09:08:43;;;;;;;;;1.00;0.00;;;;;28.05;35.14;101207.41;5075634;28;45744;-72
2023/07/12 09:11:19;;;;;;;;;0.80;0.80;;;;;28.14;35.88;101202.53;5072006;28;45342;-72
2023/07/12 09:13:46;;;;;;;;;0.80;0.00;;;;;27.99;35.30;101196.78;5074539;28;45663;-72
2023/07/12 09:16:33;;;;;;;;;0.80;0.80;;;;;27.95;35.86;101210.56;5070221;28;45343;-69
2023/07/12 09:19:20;;;;;;;;;0.20;0.20;;;;;27.68;35.52;101199.88;5074621;28;45902;-69
2023/07/12 09:21:53;;;;;;;;;0.00;0.00;;;;;27.67;34.99;101222.53;5064176;27;45273;-68
2023/07/12 09:24:28;;;;;;;;;5.00;0.50;;;;;27.47;34.90;101223.31;5066788;28;46000;-68
2023/07/12 09:27:14;;;;;;;;;1.75;1.75;;;;;27.28;34.86;101217.75;5061659;28;45558;-69
2023/07/12 09:29:39;;;;;;;;;2.00;1.00;;;;;27.16;35.12;101215.47;5074635;28;45439;-69
2023/07/12 09:32:15;;;;;;;;;2.75;0.75;;;;;27.13;35.46;101210.13;5069514;28;46031;-69
2023/07/12 09:34:41;;;;;;;;;0.80;0.40;;;;;27.14;35.02;101218.25;5073961;28;45306;-68
2023/07/12 09:37:17;;;;;;;;;0.25;0.25;;;;;27.05;35.85;101215.84;5067985;28;45306;-69
2023/07/12 09:39:59;;;;;;;;;2.20;1.40;;;;;26.98;35.67;101220.63;5072712;28;46565;-68
2023/07/12 09:42:26;;;;;;;;;0.80;0.80;;;;;26.81;35.48;101217.66;5070654;28;45432;-69
2023/07/12 09:44:51;;;;;;;;;1.50;1.00;;;;;26.93;34.75;101221.75;5068149;28;45516;-68
2023/07/12 09:48:11;;;;;;;;;2.00;0.00;;;;;26.95;35.04;101233.44;5074051;28;47035;-69
2023/07/12 09:50:59;;;;;;;;;3.00;1.00;;;;;26.91;35.05;101237.19;5021121;28;45277;-68
2023/07/12 09:53:38;;;;;;;;;1.75;1.75;;;;;26.81;34.45;101222.22;5067999;27;45532;-69
2023/07/12 09:56:36;;;;;;;;;2.00;2.00;;;;;26.93;34.75;101233.47;5071701;28;45820;-69
2023/07/12 09:59:46;;;;;;;;;0.80;0.00;;;;;26.73;34.75;101208.91;5079115;28;45635;-69
2023/07/12 10:02:49;;;;;;;;;1.40;0.80;;;;;26.76;34.50;101228.66;5082271;27;45268;-68
2023/07/12 10:05:22;;;;;;;;;1.00;1.00;;;;;26.64;34.87;101183.03;5080399;28;45306;-68
2023/07/12 10:07:55;;;;;;;;;1.50;1.00;;;;;27.04;33.74;101218.63;5070278;28;45689;-68
2023/07/12 10:10:30;;;;;;;;;0.00;0.00;;;;;27.40;32.45;101233.53;5079968;28;45343;-68
2023/07/12 10:13:18;;;;;;;;;0.00;0.00;;;;;27.94;32.51;101211.53;5075562;28;45487;-68
2023/07/12 10:15:45;;;;;;;;;1.00;1.00;;;;;28.31;31.99;101210.84;5064085;28;45495;-67
2023/07/12 10:18:17;;;;;;;;;0.60;0.60;;;;;28.45;32.08;101191.25;5078026;28;45414;-67
2023/07/12 10:20:43;;;;;;;;;0.20;0.20;;;;;28.77;31.14;101209.75;5071573;28;45412;-67
2023/07/12 10:23:11;;;;;;;;;0.00;0.00;;;;;28.96;30.34;101209.81;5077568;28;45710;-68
2023/07/12 10:25:44;;;;;;;;;0.00;0.00;;;;;29.27;31.34;101210.22;5069573;28;45390;-68
2023/07/12 10:28:34;;;;;;;;;0.00;0.00;;;;;29.71;30.37;101212.69;5074083;28;45984;-68
2023/07/12 10:31:09;;;;;;;;;1.80;0.60;;;;;30.00;30.82;101198.50;5071557;28;46259;-68
2023/07/12 10:33:42;;;;;;;;;0.00;0.00;;;;;30.33;30.83;101187.75;5077487;28;45598;-68
2023/07/12 10:36:15;;;;;;;;;0.00;0.00;;;;;30.50;29.37;101183.22;5074131;27;45448;-68
2023/07/12 10:38:40;;;;;;;;;1.20;1.20;;;;;30.65;29.66;101193.34;5080512;27;45371;-68
2023/07/12 10:41:12;;;;;;;;;0.75;0.75;;;;;30.64;29.44;101204.31;5073503;28;45780;-67
2023/07/12 10:43:47;;;;;;;;;0.20;0.20;;;;;30.41;29.81;101194.63;5073732;28;45419;-69
2023/07/12 10:46:30;;;;;;;;;0.60;0.60;;;;;30.27;29.83;101178.97;5071866;28;46370;-68
2023/07/12 10:48:57;;;;;;;;;0.80;0.80;;;;;30.40;29.32;101195.59;5076424;28;45417;-69
2023/07/12 10:51:40;;;;;;;;;1.20;0.00;;;;;30.48;29.61;101183.31;5074042;28;46959;-68
2023/07/12 10:54:31;;;;;;;;;0.00;0.00;;;;;30.47;27.48;101191.56;5078104;28;45295;-68
2023/07/12 10:57:25;;;;;;;;;0.20;0.20;;;;;30.66;29.18;101178.72;5069555;28;45463;-69
2023/07/12 11:00:00;;;;;;;;;2.20;1.80;;;;;30.71;28.60;101201.19;5067650;28;45441;-68
2023/07/12 11:02:28;;;;;;;;;1.20;0.80;;;;;30.59;28.03;101190.94;5068499;28;45243;-69
2023/07/12 11:04:53;;;;;;;;;0.80;0.80;;;;;30.33;28.72;101168.66;5075006;27;45423;-69
2023/07/12 11:07:19;;;;;;;;;0.25;0.25;;;;;30.43;28.30;101198.16;5066802;28;45287;-69
2023/07/12 11:09:44;;;;;;;;;1.00;1.00;;;;;30.50;29.00;101186.84;5078829;28;45524;-69
2023/07/12 11:12:15;;;;;;;;;1.00;0.25;;;;;30.40;28.53;101180.09;5066302;28;45418;-69
2023/07/12 11:14:44;;;;;;;;;0.80;0.80;;;;;30.47;28.59;101184.28;5071600;28;45415;-69
2023/07/12 11:17:16;;;;;;;;;2.80;1.80;;;;;30.31;28.11;101184.22;5065181;28;45456;-69
2023/07/12 11:19:42;;;;;;;;;2.40;1.40;;;;;30.03;28.62;101190.16;5061800;28;45441;-69
2023/07/12 11:22:20;;;;;;;;;0.25;0.25;;;;;29.77;28.42;101196.03;5071877;28;48007;-69
2023/07/12 11:25:21;;;;;;;;;0.20;0.20;;;;;29.83;28.76;101182.13;5064218;28;45413;-69
2023/07/12 11:27:54;;;;;;;;;1.80;0.80;;;;;30.11;27.90;101196.13;5072792;28;45492;-68
2023/07/12 11:30:26;;;;;;;;;0.00;0.00;;;;;30.27;27.42;101184.44;5069973;28;46012;-68
2023/07/12 11:33:21;;;;;;;;;0.20;0.20;;;;;30.54;27.57;101193.03;5060455;28;48202;-68